Chapel Hill, Tennessee
Current Conditions -  °F | °C
As of 4:15 PM on Sunday 23 Nov 2014 (Local Time) from KSYI Reporting Station
Scattered Clouds Scattered Clouds  
Wind Chill: 59°   Ceiling: Unl
Heat Index: 59°   Visibility: 10mi
Dew Point: 57°   Wind: 13mph
Humidity: 94%   Direction: 150°SSE
Pressure: 29.49"   Gusts: NA
Location:  35.63°N, 86.69°W
Report Text: KSYI 232215Z AUTO 15011KT 10SM FEW015 SCT031 SCT050 15/14 A2949 RMK
Loading
Personal Weather Stations






























Interactive Weather Map New forecast layout! Learn more

10-Day Weather Forecast

Advertisements
Track Severe Weather on mobile